Time;durP1;ratioP1;P1;durP2;ratioP2;P2;SDS_P1;SDS_P2;PMS_P1;PMS_P2;Temp;Humidity;BMP_temperature;BMP_pressure;BME280_temperature;BME280_humidity;BME280_pressure;Samples;Min_cycle;Max_cycle;Signal;HPM_P1;HPM_P2
2024/01/05 00:00:57;;;;;;;14.48;5.32;;;;;;;6.00;100.00;99823.69;5070053;28;20049;-48
2024/01/05 00:03:29;;;;;;;18.83;6.32;;;;;;;5.98;100.00;99820.34;5068470;28;20045;-46
2024/01/05 00:05:59;;;;;;;17.00;6.18;;;;;;;6.07;100.00;99827.59;5070647;28;20045;-45
2024/01/05 00:08:27;;;;;;;14.77;5.78;;;;;;;6.04;100.00;99822.56;5071909;28;20076;-47
2024/01/05 00:10:55;;;;;;;17.80;6.65;;;;;;;6.04;100.00;99819.94;5070529;28;20068;-44
2024/01/05 00:13:23;;;;;;;21.45;6.82;;;;;;;6.06;100.00;99821.53;5071884;28;20053;-47
2024/01/05 00:15:54;;;;;;;18.98;7.28;;;;;;;6.04;100.00;99814.72;5072085;28;20111;-45
2024/01/05 00:18:22;;;;;;;21.60;6.82;;;;;;;6.03;100.00;99818.28;5069303;28;20052;-46
2024/01/05 00:20:51;;;;;;;19.30;8.10;;;;;;;6.06;100.00;99812.88;5068964;28;20115;-46
2024/01/05 00:23:20;;;;;;;22.33;7.90;;;;;;;6.04;100.00;99809.50;5071854;28;20052;-49
2024/01/05 00:25:49;;;;;;;20.38;8.38;;;;;;;6.11;100.00;99813.44;5069178;28;20048;-48
2024/01/05 00:28:20;;;;;;;19.05;8.05;;;;;;;6.09;100.00;99807.44;5067333;28;20044;-49
2024/01/05 00:30:48;;;;;;;18.67;7.47;;;;;;;6.06;100.00;99802.44;5070469;28;20063;-48
2024/01/05 00:33:16;;;;;;;23.17;8.30;;;;;;;6.07;100.00;99797.09;5071384;28;20502;-47
2024/01/05 00:35:44;;;;;;;19.63;8.00;;;;;;;6.12;100.00;99781.13;5071737;28;20045;-47
2024/01/05 00:38:17;;;;;;;19.15;7.45;;;;;;;6.13;100.00;99776.78;5071260;28;20037;-47
2024/01/05 00:40:45;;;;;;;20.83;7.53;;;;;;;6.17;100.00;99773.03;5071548;28;20558;-46
2024/01/05 00:43:13;;;;;;;19.98;7.43;;;;;;;6.17;100.00;99766.03;5071583;28;20053;-47
2024/01/05 00:45:41;;;;;;;16.92;6.30;;;;;;;6.24;100.00;99753.41;5070640;28;20048;-46
2024/01/05 00:48:10;;;;;;;19.58;6.45;;;;;;;6.24;100.00;99762.09;5071060;28;20059;-46
2024/01/05 00:50:38;;;;;;;13.73;6.40;;;;;;;6.25;100.00;99752.50;5070609;28;20055;-44
2024/01/05 00:53:08;;;;;;;17.33;6.75;;;;;;;6.31;100.00;99753.88;5071095;28;20511;-47
2024/01/05 00:55:38;;;;;;;15.93;6.43;;;;;;;6.34;100.00;99751.03;5068154;28;20041;-50
2024/01/05 00:58:06;;;;;;;16.42;6.55;;;;;;;6.36;100.00;99749.19;5067100;28;20064;-48
2024/01/05 01:00:34;;;;;;;17.10;6.97;;;;;;;6.38;100.00;99745.53;5066622;28;20106;-49
2024/01/05 01:03:05;;;;;;;18.90;6.97;;;;;;;6.37;100.00;99750.88;5068833;28;20041;-48
2024/01/05 01:05:33;;;;;;;17.35;7.10;;;;;;;6.38;100.00;99750.75;5069268;28;20079;-48
2024/01/05 01:08:01;;;;;;;23.77;7.85;;;;;;;6.41;100.00;99740.09;5070317;28;20048;-50
2024/01/05 01:10:30;;;;;;;16.48;7.85;;;;;;;6.39;100.00;99734.16;5070038;28;20578;-48
2024/01/05 01:13:01;;;;;;;23.80;8.20;;;;;;;6.36;100.00;99730.91;5070302;28;20519;-46
2024/01/05 01:15:30;;;;;;;18.23;7.72;;;;;;;6.34;100.00;99724.94;5070054;28;20139;-47
2024/01/05 01:17:58;;;;;;;20.90;8.82;;;;;;;6.36;100.00;99723.06;5068331;28;20044;-49
2024/01/05 01:20:27;;;;;;;19.33;8.10;;;;;;;6.33;100.00;99716.28;5069717;28;20558;-46
2024/01/05 01:22:55;;;;;;;19.85;7.75;;;;;;;6.28;100.00;99707.06;5070981;28;20044;-46
2024/01/05 01:25:23;;;;;;;23.27;9.13;;;;;;;6.28;100.00;99710.50;5073538;28;20124;-48
2024/01/05 01:27:53;;;;;;;16.65;8.57;;;;;;;6.21;100.00;99711.84;5070534;28;20039;-46
2024/01/05 01:30:23;;;;;;;17.02;7.47;;;;;;;6.16;100.00;99711.31;5070046;28;20048;-47
2024/01/05 01:32:51;;;;;;;20.73;7.88;;;;;;;6.13;100.00;99714.94;5071627;28;20055;-46
2024/01/05 01:35:19;;;;;;;20.67;7.97;;;;;;;6.14;100.00;99711.41;5072575;28;20045;-48
2024/01/05 01:37:49;;;;;;;21.58;7.82;;;;;;;6.11;100.00;99711.63;5073518;28;20041;-47
2024/01/05 01:40:18;;;;;;;19.70;8.95;;;;;;;6.10;100.00;99704.72;5073592;28;20044;-46
2024/01/05 01:42:47;;;;;;;18.13;7.40;;;;;;;6.04;100.00;99705.94;5073467;28;20060;-45
2024/01/05 01:45:15;;;;;;;21.17;8.18;;;;;;;6.03;100.00;99696.44;5071985;28;20059;-46
2024/01/05 01:47:46;;;;;;;18.92;7.13;;;;;;;5.95;100.00;99700.44;5073382;28;20524;-47
2024/01/05 01:50:15;;;;;;;18.48;7.75;;;;;;;5.97;100.00;99704.66;5071290;28;20032;-49
2024/01/05 01:52:47;;;;;;;17.08;8.10;;;;;;;6.00;100.00;99687.94;5070182;28;20867;-49
2024/01/05 01:55:16;;;;;;;17.83;8.20;;;;;;;5.99;100.00;99686.31;5073422;28;20044;-44
2024/01/05 01:57:45;;;;;;;18.83;7.93;;;;;;;5.99;100.00;99683.69;5073317;28;20102;-44
2024/01/05 02:00:16;;;;;;;17.00;7.88;;;;;;;6.00;100.00;99687.94;5073223;28;20059;-45
2024/01/05 02:02:47;;;;;;;20.23;7.35;;;;;;;5.95;100.00;99688.22;5073019;28;20045;-48
2024/01/05 02:05:16;;;;;;;20.55;7.57;;;;;;;5.96;100.00;99681.22;5073112;28;20048;-47
2024/01/05 02:07:44;;;;;;;22.42;7.35;;;;;;;6.00;100.00;99677.50;5073064;28;20090;-46
2024/01/05 02:10:12;;;;;;;18.63;6.63;;;;;;;6.00;100.00;99664.47;5073204;28;20036;-47
2024/01/05 02:12:40;;;;;;;20.27;6.32;;;;;;;6.06;100.00;99666.69;5072850;28;20055;-46
2024/01/05 02:15:09;;;;;;;16.40;6.75;;;;;;;6.08;100.00;99660.44;5072818;28;20044;-45
2024/01/05 02:17:40;;;;;;;15.10;4.93;;;;;;;6.13;100.00;99657.50;5073008;28;20044;-47
2024/01/05 02:20:10;;;;;;;14.43;3.90;;;;;;;6.18;100.00;99637.16;5073025;28;20040;-48
2024/01/05 02:22:45;;;;;;;13.05;3.38;;;;;;;6.25;100.00;99640.22;5072996;28;20079;-45
2024/01/05 02:25:14;;;;;;;17.77;3.60;;;;;;;6.28;100.00;99637.38;5072782;28;20071;-45
2024/01/05 02:27:42;;;;;;;12.38;3.50;;;;;;;6.30;100.00;99632.06;5072810;28;20063;-49
2024/01/05 02:30:18;;;;;;;10.95;3.20;;;;;;;6.33;100.00;99621.44;5072650;28;20043;-46
2024/01/05 02:32:49;;;;;;;11.73;3.42;;;;;;;6.37;100.00;99620.28;5070439;28;20041;-49
2024/01/05 02:35:19;;;;;;;13.40;3.67;;;;;;;6.43;100.00;99615.50;5072033;28;20045;-49
2024/01/05 02:37:48;;;;;;;18.60;4.05;;;;;;;6.47;100.00;99610.88;5072231;28;20055;-47
2024/01/05 02:40:17;;;;;;;13.13;3.33;;;;;;;6.49;100.00;99609.00;5070266;28;20090;-47
2024/01/05 02:42:45;;;;;;;12.32;3.25;;;;;;;6.50;100.00;99605.44;5068118;28;20060;-47
2024/01/05 02:45:13;;;;;;;13.13;3.40;;;;;;;6.56;100.00;99604.22;5069866;28;20383;-45
2024/01/05 02:47:42;;;;;;;12.05;2.80;;;;;;;6.58;100.00;99591.88;5072116;28;20044;-45
2024/01/05 02:50:10;;;;;;;10.07;3.30;;;;;;;6.64;100.00;99598.44;5072474;28;20408;-48
2024/01/05 02:52:38;;;;;;;16.80;3.88;;;;;;;6.62;100.00;99595.94;5069895;28;20123;-48
2024/01/05 02:55:07;;;;;;;12.43;3.15;;;;;;;6.67;100.00;99585.19;5072361;28;20040;-45
2024/01/05 02:57:37;;;;;;;10.23;2.88;;;;;;;6.65;100.00;99582.66;5072104;28;20045;-58
2024/01/05 03:00:06;;;;;;;14.13;3.38;;;;;;;6.69;100.00;99588.53;5069996;28;20036;-59
2024/01/05 03:02:35;;;;;;;11.75;2.95;;;;;;;6.69;100.00;99583.28;5072429;28;20135;-58
2024/01/05 03:05:04;;;;;;;10.40;3.10;;;;;;;6.75;100.00;99586.31;5071243;28;20051;-58
2024/01/05 03:07:32;;;;;;;16.45;3.13;;;;;;;6.78;100.00;99580.06;5072605;28;20048;-46
2024/01/05 03:10:00;;;;;;;15.98;2.92;;;;;;;6.77;100.00;99581.81;5070439;28;20052;-59
2024/01/05 03:12:29;;;;;;;9.57;2.70;;;;;;;6.89;100.00;99581.91;5068664;28;20492;-45
2024/01/05 03:14:59;;;;;;;10.02;2.28;;;;;;;6.89;100.00;99582.75;5070740;28;20037;-45
2024/01/05 03:17:27;;;;;;;8.27;2.55;;;;;;;6.90;100.00;99573.13;5054056;28;20047;-45
2024/01/05 03:19:55;;;;;;;14.45;2.80;;;;;;;6.92;100.00;99566.84;5071658;28;20055;-46
2024/01/05 03:22:24;;;;;;;9.93;2.85;;;;;;;6.90;100.00;99573.13;5071724;28;20037;-46
2024/01/05 03:24:52;;;;;;;8.93;2.10;;;;;;;6.90;100.00;99565.31;5072103;28;20131;-46
2024/01/05 03:27:20;;;;;;;12.10;2.40;;;;;;;6.88;100.00;99560.16;5072178;28;20170;-47
2024/01/05 03:29:48;;;;;;;12.60;2.75;;;;;;;6.91;100.00;99559.97;5072114;28;20055;-45
2024/01/05 03:32:18;;;;;;;14.15;3.17;;;;;;;6.88;100.00;99551.50;5066260;28;20067;-47
2024/01/05 03:34:48;;;;;;;11.10;2.87;;;;;;;6.88;100.00;99544.47;5072172;28;20066;-48
2024/01/05 03:37:16;;;;;;;11.77;2.85;;;;;;;6.85;100.00;99552.53;5071685;28;20473;-48
2024/01/05 03:39:44;;;;;;;11.13;3.13;;;;;;;6.85;100.00;99531.63;5070778;28;20693;-45
2024/01/05 03:42:12;;;;;;;13.13;3.20;;;;;;;6.83;100.00;99537.91;5070538;28;20119;-46
2024/01/05 03:44:40;;;;;;;10.70;2.50;;;;;;;6.87;100.00;99536.75;5071910;28;20155;-45
2024/01/05 03:47:09;;;;;;;7.55;2.30;;;;;;;6.87;100.00;99527.16;5071459;28;20500;-47
2024/01/05 03:49:38;;;;;;;9.60;2.40;;;;;;;6.86;100.00;99520.25;5072106;28;20055;-47
2024/01/05 03:52:06;;;;;;;12.82;3.03;;;;;;;6.90;100.00;99519.06;5071892;28;20458;-46
2024/01/05 03:54:35;;;;;;;13.30;2.60;;;;;;;6.91;100.00;99514.66;5072006;28;20484;-46
2024/01/05 03:57:03;;;;;;;9.23;2.53;;;;;;;6.96;100.00;99511.75;5071648;28;20048;-48
2024/01/05 03:59:31;;;;;;;10.70;2.50;;;;;;;6.89;100.00;99506.94;5071514;28;20051;-48
2024/01/05 04:01:59;;;;;;;10.02;3.40;;;;;;;6.93;100.00;99505.78;5075946;28;20559;-49
2024/01/05 04:04:27;;;;;;;9.38;2.63;;;;;;;6.92;100.00;99508.50;5083227;28;20448;-47
2024/01/05 04:06:57;;;;;;;10.20;2.53;;;;;;;6.98;100.00;99499.38;5071639;28;20044;-47
2024/01/05 04:09:25;;;;;;;12.05;3.13;;;;;;;6.94;100.00;99497.00;5070343;28;20385;-47
2024/01/05 04:11:54;;;;;;;8.48;2.17;;;;;;;6.91;100.00;99492.00;5071521;28;20124;-48
2024/01/05 04:14:22;;;;;;;10.65;2.20;;;;;;;6.94;100.00;99493.56;5071512;28;20059;-46
2024/01/05 04:16:51;;;;;;;9.10;2.15;;;;;;;6.96;100.00;99491.66;5071773;28;20554;-49
2024/01/05 04:19:19;;;;;;;14.93;2.42;;;;;;;6.98;100.00;99486.31;5071304;28;20143;-48
2024/01/05 04:21:48;;;;;;;16.73;3.47;;;;;;;6.91;100.00;99485.91;5071524;28;20045;-49
2024/01/05 04:24:17;;;;;;;11.15;2.70;;;;;;;6.91;100.00;99478.94;5071231;28;20554;-48
2024/01/05 04:26:46;;;;;;;11.80;2.80;;;;;;;6.92;100.00;99474.53;5070700;28;20036;-46
2024/01/05 04:29:15;;;;;;;9.60;2.65;;;;;;;6.97;100.00;99476.81;5071041;28;20079;-45
2024/01/05 04:31:43;;;;;;;13.80;3.03;;;;;;;7.04;100.00;99483.28;5072090;28;20040;-47
2024/01/05 04:34:11;;;;;;;12.15;3.13;;;;;;;6.99;100.00;99477.53;5071013;28;20048;-47
2024/01/05 04:36:40;;;;;;;10.82;3.33;;;;;;;7.00;100.00;99477.44;5071145;28;20053;-46
2024/01/05 04:39:09;;;;;;;10.90;2.67;;;;;;;7.03;100.00;99479.00;5070031;28;20040;-46
2024/01/05 04:41:39;;;;;;;13.05;3.13;;;;;;;6.97;100.00;99482.88;5069706;28;20071;-47
2024/01/05 04:44:07;;;;;;;10.40;2.40;;;;;;;7.03;100.00;99476.38;5070457;28;20087;-46
2024/01/05 04:46:38;;;;;;;15.30;2.35;;;;;;;7.00;100.00;99468.75;5070075;28;20032;-45
2024/01/05 04:49:06;;;;;;;11.38;2.38;;;;;;;6.96;100.00;99469.94;5070343;28;20040;-47
2024/01/05 04:51:35;;;;;;;10.73;2.30;;;;;;;6.97;100.00;99459.34;5070617;28;20044;-47
2024/01/05 04:54:04;;;;;;;15.23;2.55;;;;;;;6.99;100.00;99454.84;5070656;28;20052;-45
2024/01/05 04:56:32;;;;;;;8.50;2.22;;;;;;;7.04;100.00;99449.28;5071233;28;20433;-48
2024/01/05 04:59:02;;;;;;;10.93;2.28;;;;;;;7.03;100.00;99442.38;5072421;28;20056;-44
2024/01/05 05:01:30;;;;;;;9.60;2.08;;;;;;;6.99;100.00;99444.38;5075073;28;20507;-46
2024/01/05 05:03:58;;;;;;;12.75;2.20;;;;;;;6.99;100.00;99440.94;5074937;28;20395;-45
2024/01/05 05:06:27;;;;;;;9.88;2.63;;;;;;;7.03;100.00;99439.78;5073505;28;20136;-48
2024/01/05 05:08:56;;;;;;;9.05;1.90;;;;;;;7.00;100.00;99445.25;5073108;28;20033;-47
2024/01/05 05:11:24;;;;;;;14.70;2.17;;;;;;;6.94;100.00;99443.91;5073972;28;20049;-47
2024/01/05 05:13:52;;;;;;;12.50;3.25;;;;;;;6.97;100.00;99440.22;5073642;28;20566;-44
2024/01/05 05:16:22;;;;;;;10.43;2.25;;;;;;;6.98;100.00;99426.19;5073559;28;20060;-46
2024/01/05 05:18:50;;;;;;;10.57;2.40;;;;;;;6.95;100.00;99427.25;5073487;28;20057;-45
2024/01/05 05:21:21;;;;;;;9.52;2.25;;;;;;;6.89;100.00;99423.31;5072968;28;20036;-47
2024/01/05 05:23:49;;;;;;;8.95;2.00;;;;;;;6.87;100.00;99430.44;5067663;28;20041;-47
2024/01/05 05:26:17;;;;;;;12.10;2.20;;;;;;;6.89;100.00;99412.84;5071763;28;20048;-47
2024/01/05 05:28:46;;;;;;;9.88;2.30;;;;;;;6.92;100.00;99417.03;5073660;28;20044;-45
2024/01/05 05:31:14;;;;;;;10.07;2.70;;;;;;;6.90;100.00;99409.31;5074509;28;20055;-47
2024/01/05 05:33:43;;;;;;;8.23;2.08;;;;;;;6.89;100.00;99419.88;5072953;28;20823;-46
2024/01/05 05:36:12;;;;;;;8.60;1.98;;;;;;;6.89;100.00;99410.25;5069534;28;20597;-50
2024/01/05 05:38:40;;;;;;;10.73;2.30;;;;;;;6.93;100.00;99416.09;5070804;28;20115;-48
2024/01/05 05:41:08;;;;;;;9.48;2.17;;;;;;;6.91;100.00;99410.13;5073206;28;20498;-47
2024/01/05 05:43:37;;;;;;;8.30;1.92;;;;;;;6.87;100.00;99400.84;5072804;28;20392;-45
2024/01/05 05:46:06;;;;;;;11.35;2.40;;;;;;;6.88;100.00;99397.28;5073279;28;20398;-47
2024/01/05 05:48:34;;;;;;;10.05;2.25;;;;;;;6.87;100.00;99404.31;5072453;28;20054;-48
2024/01/05 05:51:04;;;;;;;9.93;2.38;;;;;;;6.85;100.00;99393.13;5070296;28;20044;-45
2024/01/05 05:53:32;;;;;;;6.25;1.90;;;;;;;6.88;100.00;99395.50;5072423;28;20032;-50
2024/01/05 05:56:00;;;;;;;7.28;1.80;;;;;;;6.88;100.00;99394.69;5071717;28;20082;-46
2024/01/05 05:58:28;;;;;;;7.75;1.55;;;;;;;6.88;100.00;99398.13;5072691;28;20381;-47
2024/01/05 06:00:57;;;;;;;7.97;1.88;;;;;;;6.85;100.00;99398.34;5072357;28;20064;-46
2024/01/05 06:03:26;;;;;;;11.80;2.75;;;;;;;6.91;100.00;99399.66;5070823;28;20187;-46
2024/01/05 06:05:54;;;;;;;12.25;2.00;;;;;;;6.90;100.00;99390.19;5070661;28;20079;-48
2024/01/05 06:08:24;;;;;;;9.98;2.20;;;;;;;6.86;100.00;99399.19;5070249;28;20135;-45
2024/01/05 06:10:52;;;;;;;7.97;1.80;;;;;;;6.87;100.00;99404.31;5069966;28;20037;-58
2024/01/05 06:13:20;;;;;;;7.68;1.95;;;;;;;6.92;100.00;99398.72;5067970;28;20086;-58
2024/01/05 06:15:48;;;;;;;9.00;1.90;;;;;;;6.95;100.00;99398.50;5070671;28;20500;-59
2024/01/05 06:18:16;;;;;;;6.57;1.83;;;;;;;6.96;100.00;99399.34;5072532;28;20068;-49
2024/01/05 06:20:45;;;;;;;7.47;1.70;;;;;;;6.98;100.00;99395.69;5072466;28;20040;-47
2024/01/05 06:23:13;;;;;;;7.53;1.40;;;;;;;6.92;100.00;99393.50;5073082;28;20123;-58
2024/01/05 06:25:45;;;;;;;8.25;1.83;;;;;;;6.87;100.00;99399.09;5070982;28;20055;-59
2024/01/05 06:28:13;;;;;;;8.05;1.90;;;;;;;6.88;100.00;99398.13;5073088;28;20054;-59
2024/01/05 06:30:41;;;;;;;6.93;1.77;;;;;;;6.89;100.00;99398.97;5072236;28;20380;-46
2024/01/05 06:33:10;;;;;;;11.00;1.70;;;;;;;6.93;100.00;99398.63;5072536;28;20047;-46
2024/01/05 06:35:38;;;;;;;5.13;1.45;;;;;;;6.91;100.00;99400.53;5072237;28;20132;-46
2024/01/05 06:38:07;;;;;;;8.05;1.65;;;;;;;6.90;100.00;99396.25;5072371;28;20437;-58
2024/01/05 06:40:35;;;;;;;8.45;2.30;;;;;;;6.94;100.00;99402.91;5071731;28;20154;-59
2024/01/05 06:43:05;;;;;;;6.05;1.60;;;;;;;7.01;100.00;99402.44;5072611;28;20100;-59
2024/01/05 06:45:33;;;;;;;6.07;1.38;;;;;;;6.94;100.00;99402.91;5072309;28;20049;-59
2024/01/05 06:48:01;;;;;;;9.32;1.75;;;;;;;6.96;100.00;99400.19;5072164;28;20071;-59
2024/01/05 06:50:29;;;;;;;7.60;1.70;;;;;;;6.99;100.00;99399.13;5071942;28;20090;-58
2024/01/05 06:53:00;;;;;;;7.00;1.80;;;;;;;6.97;100.00;99401.84;5072200;28;20047;-59
2024/01/05 06:55:31;;;;;;;4.47;1.60;;;;;;;6.99;100.00;99399.13;5072310;28;20037;-58
2024/01/05 06:58:01;;;;;;;7.75;2.00;;;;;;;6.93;100.00;99400.41;5073864;28;20047;-59
2024/01/05 07:00:31;;;;;;;6.85;2.00;;;;;;;6.93;100.00;99400.41;5071539;28;20055;-59
2024/01/05 07:02:59;;;;;;;6.95;1.67;;;;;;;6.99;100.00;99404.34;5067400;28;20046;-58
2024/01/05 07:05:27;;;;;;;7.43;1.77;;;;;;;6.98;100.00;99400.06;5069506;28;20051;-58
2024/01/05 07:07:57;;;;;;;8.32;1.55;;;;;;;6.96;100.00;99396.75;5069485;28;20102;-59
2024/01/05 07:10:25;;;;;;;4.40;1.50;;;;;;;6.86;100.00;99388.75;5070658;28;20133;-59
2024/01/05 07:12:53;;;;;;;5.60;2.08;;;;;;;6.88;100.00;99392.88;5070347;28;20110;-58
2024/01/05 07:15:21;;;;;;;8.32;1.55;;;;;;;6.86;100.00;99386.94;5070400;28;20044;-58
2024/01/05 07:17:54;;;;;;;8.13;1.40;;;;;;;6.86;100.00;99394.78;5070494;28;20063;-59
2024/01/05 07:20:22;;;;;;;8.93;1.77;;;;;;;6.90;100.00;99395.41;5070236;28;20048;-59
2024/01/05 07:22:50;;;;;;;8.18;1.60;;;;;;;6.87;100.00;99386.00;5069062;28;20040;-46
2024/01/05 07:25:18;;;;;;;7.85;1.70;;;;;;;6.86;100.00;99389.56;5071759;28;20060;-47
2024/01/05 07:27:51;;;;;;;5.70;1.45;;;;;;;6.97;100.00;99385.31;5071858;28;20040;-49
2024/01/05 07:30:19;;;;;;;6.82;1.58;;;;;;;6.97;100.00;99386.16;5061243;28;20059;-46
2024/01/05 07:32:51;;;;;;;5.78;1.42;;;;;;;6.98;100.00;99389.59;5066065;28;20074;-45
2024/01/05 07:35:21;;;;;;;6.53;1.48;;;;;;;6.97;100.00;99380.94;5072873;28;20075;-47
2024/01/05 07:37:49;;;;;;;10.52;1.60;;;;;;;6.88;100.00;99382.44;5072082;28;20571;-45
2024/01/05 07:40:17;;;;;;;5.75;1.23;;;;;;;6.82;100.00;99382.91;5071226;28;20468;-45
2024/01/05 07:42:45;;;;;;;7.00;1.25;;;;;;;6.79;100.00;99382.28;5071004;28;20048;-48
2024/01/05 07:45:14;;;;;;;4.75;1.08;;;;;;;6.79;100.00;99387.50;5071113;28;20407;-49
2024/01/05 07:47:42;;;;;;;2.92;1.10;;;;;;;6.87;100.00;99388.63;5070320;28;20060;-48
2024/01/05 07:50:11;;;;;;;3.97;1.00;;;;;;;6.85;100.00;99390.50;5069995;28;20055;-49
2024/01/05 07:52:41;;;;;;;3.10;0.80;;;;;;;6.86;100.00;99400.03;5069939;28;20491;-48
2024/01/05 07:55:10;;;;;;;5.60;1.50;;;;;;;6.87;100.00;99396.47;5070279;28;20404;-46
2024/01/05 07:57:38;;;;;;;3.65;1.38;;;;;;;6.88;100.00;99392.88;5069770;28;20047;-48
2024/01/05 08:00:08;;;;;;;1.90;0.70;;;;;;;6.89;100.00;99394.56;5070334;28;20051;-47
2024/01/05 08:02:37;;;;;;;2.95;0.82;;;;;;;6.88;100.00;99385.03;5070218;28;20068;-49
2024/01/05 08:05:09;;;;;;;1.63;0.77;;;;;;;6.86;100.00;99391.34;5071069;28;20125;-50
2024/01/05 08:07:37;;;;;;;3.38;1.00;;;;;;;6.84;100.00;99394.06;5069468;28;20044;-47
2024/01/05 08:10:09;;;;;;;2.55;0.68;;;;;;;6.83;100.00;99400.25;5069284;28;20056;-51
2024/01/05 08:12:38;;;;;;;2.38;0.73;;;;;;;6.84;100.00;99396.66;5069417;28;20535;-50
2024/01/05 08:15:09;;;;;;;1.10;0.60;;;;;;;6.81;100.00;99389.06;5070470;28;20075;-47
2024/01/05 08:17:38;;;;;;;1.30;0.45;;;;;;;6.78;100.00;99391.91;5068305;28;20052;-50
2024/01/05 08:20:07;;;;;;;1.95;0.50;;;;;;;6.76;100.00;99392.00;5067851;28;20086;-48
2024/01/05 08:22:38;;;;;;;2.40;0.88;;;;;;;6.71;100.00;99394.13;5067398;28;20044;-46
2024/01/05 08:25:08;;;;;;;1.30;0.50;;;;;;;6.68;100.00;99381.28;5070554;28;20079;-59
2024/01/05 08:27:37;;;;;;;3.08;1.00;;;;;;;6.65;100.00;99394.53;5067678;28;20052;-47
2024/01/05 08:30:11;;;;;;;0.45;0.45;;;;;;;6.63;100.00;99393.00;5066598;28;20711;-46
2024/01/05 08:32:39;;;;;;;1.23;0.50;;;;;;;6.64;100.00;99395.50;5065987;28;20652;-48
2024/01/05 08:35:08;;;;;;;2.40;0.57;;;;;;;6.63;100.00;99390.41;5067614;28;20049;-59
2024/01/05 08:37:39;;;;;;;1.50;0.50;;;;;;;6.62;100.00;99386.13;5070231;28;20105;-45
2024/01/05 08:40:10;;;;;;;0.80;0.50;;;;;;;6.59;100.00;99397.63;5068159;28;20052;-47
2024/01/05 08:42:40;;;;;;;0.73;0.43;;;;;;;6.60;100.00;99381.00;5070264;28;20471;-57
2024/01/05 08:45:10;;;;;;;1.55;0.43;;;;;;;6.60;100.00;99397.50;5068866;28;20048;-46
2024/01/05 08:47:38;;;;;;;1.23;0.43;;;;;;;6.59;100.00;99398.44;5070298;28;20606;-59
2024/01/05 08:50:08;;;;;;;2.58;0.50;;;;;;;6.57;100.00;99387.28;5069387;28;20403;-46
2024/01/05 08:52:37;;;;;;;2.22;0.68;;;;;;;6.52;100.00;99391.16;5064405;28;20460;-58
2024/01/05 08:55:06;;;;;;;2.10;0.50;;;;;;;6.48;100.00;99390.53;5067695;28;20040;-52
2024/01/05 08:57:39;;;;;;;1.80;0.70;;;;;;;6.45;100.00;99397.75;5065484;28;20059;-46
2024/01/05 09:00:09;;;;;;;0.77;0.40;;;;;;;6.41;100.00;99391.94;5069282;28;20118;-45
2024/01/05 09:02:38;;;;;;;0.50;0.47;;;;;;;6.38;100.00;99394.75;5069243;28;20049;-45
2024/01/05 09:05:07;;;;;;;0.52;0.50;;;;;;;6.34;100.00;99393.28;5069113;28;20044;-49
2024/01/05 09:07:35;;;;;;;2.25;0.82;;;;;;;6.25;100.00;99379.94;5069746;28;20059;-47
2024/01/05 09:10:08;;;;;;;1.75;0.60;;;;;;;6.29;100.00;99384.97;5065494;28;20052;-46
2024/01/05 09:12:39;;;;;;;1.52;0.60;;;;;;;6.19;100.00;99388.22;5064748;28;20080;-46
2024/01/05 09:15:09;;;;;;;3.03;0.65;;;;;;;6.15;100.00;99384.16;5069975;28;20052;-47
2024/01/05 09:17:37;;;;;;;0.70;0.50;;;;;;;6.16;100.00;99383.22;5070912;28;20055;-46
2024/01/05 09:20:08;;;;;;;1.00;0.60;;;;;;;6.13;100.00;99382.59;5070540;28;20055;-46
2024/01/05 09:22:37;;;;;;;1.50;0.60;;;;;;;6.08;100.00;99385.50;5068441;28;20037;-47
2024/01/05 09:25:07;;;;;;;1.83;0.50;;;;;;;6.05;100.00;99383.09;5066336;28;20404;-46
2024/01/05 09:27:36;;;;;;;2.38;0.57;;;;;;;6.08;100.00;99382.88;5064099;28;20105;-45
2024/01/05 09:30:09;;;;;;;1.63;0.60;;;;;;;6.10;100.00;99391.47;5070124;28;20111;-49
2024/01/05 09:32:37;;;;;;;1.77;0.50;;;;;;;6.11;100.00;99393.13;5067840;28;20509;-47
2024/01/05 09:35:08;;;;;;;2.65;0.60;;;;;;;6.08;100.00;99399.41;5069723;28;20044;-49
2024/01/05 09:37:36;;;;;;;3.35;0.85;;;;;;;6.08;100.00;99396.78;5069588;28;20045;-49
2024/01/05 09:40:05;;;;;;;2.67;0.63;;;;;;;6.08;100.00;99395.94;5070102;28;20369;-46
2024/01/05 09:42:34;;;;;;;1.17;0.50;;;;;;;6.03;100.00;99398.88;5069425;28;20044;-45
2024/01/05 09:45:03;;;;;;;3.15;0.95;;;;;;;6.03;100.00;99405.88;5072365;28;20059;-47
2024/01/05 09:47:33;;;;;;;2.25;0.60;;;;;;;6.00;100.00;99411.28;5072449;28;20423;-47
2024/01/05 09:50:10;;;;;;;1.40;0.70;;;;;;;5.97;100.00;99407.13;5071546;28;20450;-47
2024/01/05 09:52:39;;;;;;;0.68;0.60;;;;;;;5.97;100.00;99411.47;5073132;28;20033;-47
2024/01/05 09:55:06;;;;;;;3.33;0.77;;;;;;;5.91;100.00;99415.34;5072990;28;20044;-47
2024/01/05 09:57:36;;;;;;;1.38;0.80;;;;;;;5.90;100.00;99424.13;5073329;28;20539;-47
2024/01/05 10:00:08;;;;;;;3.05;0.70;;;;;;;5.89;100.00;99407.63;5073219;28;20044;-45
2024/01/05 10:02:42;;;;;;;1.73;0.93;;;;;;;5.87;100.00;99409.50;5073369;28;20055;-47
2024/01/05 10:05:12;;;;;;;1.67;0.90;;;;;;;5.83;100.00;99413.25;5071722;28;20037;-46
2024/01/05 10:07:42;;;;;;;3.50;0.65;;;;;;;5.82;100.00;99406.38;5072992;28;20049;-44
2024/01/05 10:10:12;;;;;;;2.47;0.73;;;;;;;5.82;100.00;99414.22;5072736;28;20048;-45
2024/01/05 10:12:43;;;;;;;2.33;0.80;;;;;;;5.80;100.00;99412.66;5072862;28;20399;-45
2024/01/05 10:15:13;;;;;;;1.05;0.60;;;;;;;5.77;100.00;99413.69;5073038;28;20064;-47
2024/01/05 10:17:42;;;;;;;3.88;0.60;;;;;;;5.81;100.00;99411.69;5071316;28;20132;-49
2024/01/05 10:20:11;;;;;;;0.73;0.55;;;;;;;5.71;100.00;99411.47;5071723;28;20122;-47
2024/01/05 10:22:39;;;;;;;1.77;0.80;;;;;;;5.69;100.00;99413.38;5072803;28;20075;-48
2024/01/05 10:25:15;;;;;;;1.80;0.70;;;;;;;5.68;100.00;99414.31;5072438;28;20078;-49
2024/01/05 10:27:43;;;;;;;1.15;0.70;;;;;;;5.67;100.00;99407.41;5071212;28;20442;-51
2024/01/05 10:30:25;;;;;;;0.68;0.68;;;;;;;5.57;100.00;99410.63;5073495;28;20044;-51
2024/01/05 10:33:05;;;;;;;1.80;0.90;;;;;;;5.49;100.00;99399.88;5071525;28;20039;-45
2024/01/05 10:35:36;;;;;;;1.33;0.80;;;;;;;5.54;100.00;99410.03;5071785;28;20063;-47
2024/01/05 10:38:10;;;;;;;1.48;0.80;;;;;;;5.51;100.00;99400.63;5073059;28;20057;-48
2024/01/05 10:40:38;;;;;;;1.95;0.88;;;;;;;5.47;100.00;99398.31;5072441;28;20519;-46
2024/01/05 10:43:11;;;;;;;1.95;1.10;;;;;;;5.47;100.00;99393.94;5073477;28;20566;-51
2024/01/05 10:45:41;;;;;;;2.42;1.20;;;;;;;5.45;100.00;99401.03;5073182;28;20045;-46
2024/01/05 10:48:13;;;;;;;2.38;1.15;;;;;;;5.46;100.00;99392.28;5073359;28;20584;-46
2024/01/05 10:50:43;;;;;;;3.17;0.95;;;;;;;5.49;100.00;99397.28;5073098;28;20036;-46
2024/01/05 10:53:13;;;;;;;2.00;1.10;;;;;;;5.51;100.00;99390.19;5073117;28;20064;-48
2024/01/05 10:55:43;;;;;;;1.65;1.13;;;;;;;5.47;100.00;99398.31;5070826;28;20110;-47
2024/01/05 10:58:12;;;;;;;2.58;1.20;;;;;;;5.50;100.00;99398.94;5073160;28;20045;-47
2024/01/05 11:00:41;;;;;;;5.30;1.20;;;;;;;5.47;100.00;99398.31;5072813;28;20063;-47
2024/01/05 11:03:15;;;;;;;3.40;1.13;;;;;;;5.44;100.00;99394.16;5073139;28;20491;-47
2024/01/05 11:05:45;;;;;;;1.58;1.15;;;;;;;5.45;100.00;99393.19;5072449;28;20049;-46
2024/01/05 11:08:26;;;;;;;1.98;1.20;;;;;;;5.44;100.00;99396.78;5071889;28;20053;-47
2024/01/05 11:11:11;;;;;;;3.10;1.48;;;;;;;5.48;100.00;99390.41;5072757;28;20123;-46
2024/01/05 11:14:07;;;;;;;3.35;1.50;;;;;;;5.47;100.00;99387.88;5071860;28;20499;-48
2024/01/05 11:17:14;;;;;;;2.88;1.55;;;;;;;5.47;100.00;99382.66;5072379;28;20123;-45
2024/01/05 11:19:53;;;;;;;4.13;2.03;;;;;;;5.50;100.00;99377.25;5068196;28;20119;-45
2024/01/05 11:22:28;;;;;;;2.63;1.30;;;;;;;5.52;100.00;99389.25;5072826;28;20128;-45
2024/01/05 11:25:00;;;;;;;3.75;1.40;;;;;;;5.52;100.00;99384.06;5072352;28;20100;-46
2024/01/05 11:27:30;;;;;;;4.00;1.33;;;;;;;5.52;100.00;99383.19;5072446;28;20501;-44
2024/01/05 11:29:58;;;;;;;2.83;1.40;;;;;;;5.56;100.00;99372.47;5072444;28;20489;-47
2024/01/05 11:32:38;;;;;;;4.60;1.60;;;;;;;5.56;100.00;99377.69;5072345;28;20037;-47
2024/01/05 11:35:43;;;;;;;4.93;1.60;;;;;;;5.58;100.00;99367.16;5072225;28;20044;-46
2024/01/05 11:38:29;;;;;;;4.22;1.67;;;;;;;5.57;100.00;99368.91;5072543;28;20036;-46
2024/01/05 11:40:58;;;;;;;2.40;1.45;;;;;;;5.58;100.00;99370.56;5071834;28;20495;-45